createdAt,value
2017-09-28T00:00:06.211Z,63.02
2017-09-28T00:00:46.667Z,63.02
2017-09-28T00:01:27.118Z,63.12
2017-09-28T00:02:07.568Z,63.12
2017-09-28T00:02:48.030Z,63.02
2017-09-28T00:03:28.482Z,63.02
2017-09-28T00:04:08.934Z,63.12
2017-09-28T00:04:49.385Z,63.12
2017-09-28T00:05:29.844Z,63.05
2017-09-28T00:06:10.305Z,63.24
2017-09-28T00:06:50.761Z,63.02
2017-09-28T00:07:31.231Z,63.02
2017-09-28T00:08:11.672Z,63.02
2017-09-28T00:08:52.130Z,62.82
2017-09-28T00:09:32.567Z,63.02
2017-09-28T00:10:13.025Z,63.02
2017-09-28T00:10:53.519Z,62.82
2017-09-28T00:11:33.979Z,63.02
2017-09-28T00:12:14.435Z,62.92
2017-09-28T00:12:54.903Z,63.02
2017-09-28T00:13:35.372Z,63.12
2017-09-28T00:14:15.813Z,62.82
2017-09-28T00:14:56.268Z,62.95
2017-09-28T00:15:36.714Z,62.86
2017-09-28T00:16:17.177Z,62.73
2017-09-28T00:16:57.627Z,62.82
2017-09-28T00:17:38.078Z,62.82
2017-09-28T00:18:18.514Z,62.86
2017-09-28T00:18:58.969Z,62.92
2017-09-28T00:19:39.422Z,63.05
2017-09-28T00:20:19.871Z,62.73
2017-09-28T00:21:00.322Z,63.02
2017-09-28T00:21:40.784Z,63.02
2017-09-28T00:22:21.248Z,62.82
2017-09-28T00:23:01.684Z,62.82
2017-09-28T00:23:42.134Z,63.02
2017-09-28T00:24:22.594Z,62.82
2017-09-28T00:25:03.050Z,62.82
2017-09-28T00:25:43.508Z,62.82
2017-09-28T00:26:23.969Z,62.86
2017-09-28T00:27:04.425Z,63.05
2017-09-28T00:27:44.881Z,63.15
2017-09-28T00:28:25.333Z,63.21
2017-09-28T00:29:05.777Z,63.31
2017-09-28T00:29:46.223Z,63.24
2017-09-28T00:30:26.674Z,63.53
2017-09-28T00:31:07.139Z,63.12
2017-09-28T00:31:47.595Z,63.5
2017-09-28T00:32:28.035Z,63.05
2017-09-28T00:33:08.490Z,63.12
2017-09-28T00:33:48.952Z,63.12
2017-09-28T00:34:29.402Z,63.02
2017-09-28T00:35:09.870Z,63.21
2017-09-28T00:35:50.323Z,63.12
2017-09-28T00:36:30.784Z,63.21
2017-09-28T00:37:11.239Z,63.21
2017-09-28T00:37:51.690Z,63.21
2017-09-28T00:38:32.148Z,63.21
2017-09-28T00:39:12.602Z,63.31
2017-09-28T00:39:53.045Z,63.31
2017-09-28T00:40:33.510Z,63.21
2017-09-28T00:41:13.965Z,63.21
2017-09-28T00:41:54.415Z,63.31
2017-09-28T00:42:34.863Z,63.21
2017-09-28T00:43:15.324Z,63.21
2017-09-28T00:43:55.764Z,63.02
2017-09-28T00:44:36.214Z,63.02
2017-09-28T00:45:16.663Z,62.92
2017-09-28T00:45:57.106Z,63.02
2017-09-28T00:46:37.575Z,63.02
2017-09-28T00:47:18.014Z,63.12
2017-09-28T00:47:58.471Z,63.21
2017-09-28T00:48:38.925Z,63.12
2017-09-28T00:49:19.385Z,63.12
2017-09-28T00:49:59.842Z,63.02
2017-09-28T00:50:40.300Z,63.4
2017-09-28T00:51:20.752Z,63.02
2017-09-28T00:52:01.206Z,63.02
2017-09-28T00:52:41.660Z,63.02
2017-09-28T00:53:22.119Z,63.02
2017-09-28T00:54:02.576Z,63.02
2017-09-28T00:54:43.062Z,63.02
2017-09-28T00:55:23.470Z,63.12
2017-09-28T00:56:03.927Z,63.6
2017-09-28T00:56:44.382Z,63.12
2017-09-28T00:57:24.830Z,63.02
2017-09-28T00:58:05.285Z,62.92
2017-09-28T00:58:45.733Z,63.02
2017-09-28T00:59:26.188Z,63.12
2017-09-28T01:00:06.636Z,63.02
2017-09-28T01:00:47.084Z,63.21
2017-09-28T01:01:27.535Z,63.02
2017-09-28T01:02:07.989Z,63.02
2017-09-28T01:02:48.449Z,63.6
2017-09-28T01:03:28.917Z,63.21
2017-09-28T01:04:09.374Z,63.31
2017-09-28T01:04:49.826Z,63.31
2017-09-28T01:05:30.266Z,63.7
2017-09-28T01:06:10.719Z,63.21
2017-09-28T01:06:51.167Z,63.31
2017-09-28T01:07:31.626Z,63.6
2017-09-28T01:08:12.084Z,63.31
2017-09-28T01:08:52.541Z,63.31
2017-09-28T01:09:32.996Z,63.6
2017-09-28T01:10:13.452Z,63.6
2017-09-28T01:10:53.907Z,63.4
2017-09-28T01:11:34.361Z,63.5
2017-09-28T01:12:14.818Z,63.31
2017-09-28T01:12:55.270Z,63.4
2017-09-28T01:13:35.726Z,63.31
2017-09-28T01:14:16.185Z,63.31
2017-09-28T01:14:56.656Z,63.4
2017-09-28T01:15:37.114Z,63.4
2017-09-28T01:16:17.563Z,63.4
2017-09-28T01:16:58.027Z,63.5
2017-09-28T01:17:38.475Z,63.4
2017-09-28T01:18:18.931Z,63.5
2017-09-28T01:18:59.384Z,63.4
2017-09-28T01:19:39.843Z,63.31
2017-09-28T01:20:20.302Z,63.4
2017-09-28T01:21:00.759Z,63.4
2017-09-28T01:21:41.217Z,63.4
2017-09-28T01:22:21.667Z,63.7
2017-09-28T01:23:02.119Z,63.89
2017-09-28T01:23:42.566Z,63.79
2017-09-28T01:24:23.022Z,63.7
2017-09-28T01:25:03.462Z,63.5
2017-09-28T01:25:43.918Z,63.79
2017-09-28T01:26:24.373Z,63.7
2017-09-28T01:27:04.823Z,63.5
2017-09-28T01:27:45.276Z,63.4
2017-09-28T01:28:25.734Z,63.98
2017-09-28T01:29:06.204Z,63.79
2017-09-28T01:29:46.660Z,63.98
2017-09-28T01:30:27.127Z,63.5
2017-09-28T01:31:07.571Z,63.98
2017-09-28T01:31:48.023Z,63.89
2017-09-28T01:32:28.481Z,63.79
2017-09-28T01:33:08.938Z,63.98
2017-09-28T01:33:49.397Z,63.89
2017-09-28T01:34:29.858Z,63.6
2017-09-28T01:35:10.317Z,63.98
2017-09-28T01:35:50.781Z,63.89
2017-09-28T01:36:31.244Z,63.6
2017-09-28T01:37:11.693Z,63.6
2017-09-28T01:37:52.147Z,63.98
2017-09-28T01:38:32.602Z,63.6
2017-09-28T01:39:13.066Z,63.89
2017-09-28T01:39:53.518Z,63.7
2017-09-28T01:40:33.977Z,63.7
2017-09-28T01:41:14.426Z,63.7
2017-09-28T01:41:54.871Z,63.79
2017-09-28T01:42:35.337Z,63.7
2017-09-28T01:43:15.775Z,63.79
2017-09-28T01:43:56.222Z,63.6
2017-09-28T01:44:36.673Z,63.79
2017-09-28T01:45:17.134Z,63.7
2017-09-28T01:45:57.593Z,63.6
2017-09-28T01:46:38.044Z,63.7
2017-09-28T01:47:18.498Z,63.79
2017-09-28T01:47:58.949Z,63.79
2017-09-28T01:48:39.405Z,63.6
2017-09-28T01:49:19.866Z,63.79
2017-09-28T01:50:00.320Z,63.7
2017-09-28T01:50:40.773Z,63.7
2017-09-28T01:51:21.229Z,63.79
2017-09-28T01:52:01.679Z,63.79
2017-09-28T01:52:42.139Z,63.79
2017-09-28T01:53:22.582Z,63.79
2017-09-28T01:54:03.044Z,63.79
2017-09-28T01:54:43.501Z,63.79
2017-09-28T01:55:23.961Z,63.79
2017-09-28T01:56:04.412Z,63.79
2017-09-28T01:56:44.877Z,63.79
2017-09-28T01:57:25.339Z,63.5
2017-09-28T01:58:05.796Z,63.5
2017-09-28T01:58:46.254Z,63.5
2017-09-28T01:59:26.716Z,63.5
2017-09-28T02:00:07.175Z,63.5
2017-09-28T02:00:47.634Z,63.4
2017-09-28T02:01:28.092Z,63.5
2017-09-28T02:02:08.547Z,63.5
2017-09-28T02:02:49.003Z,63.89
2017-09-28T02:03:29.485Z,63.98
2017-09-28T02:04:09.931Z,63.4
2017-09-28T02:04:50.388Z,63.89
2017-09-28T02:05:30.842Z,63.89
2017-09-28T02:06:11.297Z,63.98
2017-09-28T02:06:51.754Z,63.89
2017-09-28T02:07:32.208Z,63.89
2017-09-28T02:08:12.661Z,63.98
2017-09-28T02:08:53.115Z,63.6
2017-09-28T02:09:33.567Z,63.6
2017-09-28T02:10:14.019Z,63.79
2017-09-28T02:10:54.478Z,63.98
2017-09-28T02:11:34.927Z,63.5
2017-09-28T02:12:15.384Z,63.4
2017-09-28T02:12:55.843Z,63.89
2017-09-28T02:13:36.294Z,63.98
2017-09-28T02:14:16.751Z,63.5
2017-09-28T02:14:57.196Z,63.79
2017-09-28T02:15:37.652Z,63.79
2017-09-28T02:16:18.107Z,63.79
2017-09-28T02:16:58.564Z,63.79
2017-09-28T02:17:39.023Z,63.6
2017-09-28T02:18:19.480Z,63.6
2017-09-28T02:18:59.926Z,63.89
2017-09-28T02:19:40.382Z,63.6
2017-09-28T02:20:20.838Z,63.4
2017-09-28T02:21:01.296Z,63.31
2017-09-28T02:21:41.746Z,63.5
2017-09-28T02:22:22.205Z,63.6
2017-09-28T02:23:02.664Z,63.7
2017-09-28T02:23:43.638Z,63.79
2017-09-28T02:24:24.095Z,63.6
2017-09-28T02:25:04.552Z,63.6
2017-09-28T02:25:45.003Z,63.5
2017-09-28T02:26:25.457Z,63.4
2017-09-28T02:27:05.913Z,63.4
2017-09-28T02:27:46.371Z,63.4
2017-09-28T02:28:26.832Z,63.4
2017-09-28T02:29:07.290Z,63.5
2017-09-28T02:29:47.734Z,63.5
2017-09-28T02:30:28.192Z,63.5
2017-09-28T02:31:08.645Z,63.4
2017-09-28T02:31:49.106Z,63.5
2017-09-28T02:32:29.564Z,63.6
2017-09-28T02:33:10.013Z,63.4
2017-09-28T02:35:22.808Z,63.21
2017-09-28T02:36:03.262Z,63.4
2017-09-28T02:36:43.720Z,63.4
2017-09-28T02:37:24.179Z,63.31
2017-09-28T02:38:04.635Z,63.21
2017-09-28T02:38:45.091Z,63.21
2017-09-28T02:39:25.547Z,63.7
2017-09-28T02:40:05.989Z,63.5
2017-09-28T02:40:46.482Z,63.7
2017-09-28T02:41:26.897Z,63.21
2017-09-28T02:42:07.350Z,63.7
2017-09-28T02:42:47.801Z,63.7
2017-09-28T02:43:28.238Z,63.7
2017-09-28T02:44:08.681Z,63.7
2017-09-28T02:44:49.140Z,63.79
2017-09-28T02:45:29.599Z,63.79
2017-09-28T02:46:10.048Z,63.21
2017-09-28T02:46:50.487Z,63.7
2017-09-28T02:47:30.980Z,63.98
2017-09-28T02:48:11.393Z,63.4
2017-09-28T02:48:51.841Z,63.4
2017-09-28T02:49:32.288Z,63.89
2017-09-28T02:50:12.743Z,63.98
2017-09-28T02:50:53.205Z,64.08
2017-09-28T02:51:33.659Z,63.98
2017-09-28T02:52:14.121Z,63.98
2017-09-28T02:52:54.580Z,64.18
2017-09-28T02:53:35.032Z,63.98
2017-09-28T02:54:15.485Z,64.18
2017-09-28T02:54:55.944Z,63.98
2017-09-28T02:55:36.399Z,63.98
2017-09-28T02:56:16.853Z,64.08
2017-09-28T02:56:57.307Z,63.98
2017-09-28T02:57:37.765Z,63.98
2017-09-28T02:58:18.233Z,64.08
2017-09-28T02:58:58.682Z,64.37
2017-09-28T02:59:39.124Z,64.37
2017-09-28T03:00:19.564Z,64.37
2017-09-28T03:01:00.013Z,63.98
2017-09-28T03:01:40.470Z,64.37
2017-09-28T03:02:20.920Z,63.98
2017-09-28T03:03:01.365Z,64.24
2017-09-28T03:03:41.828Z,63.89
2017-09-28T03:04:22.284Z,64.28
2017-09-28T03:05:02.742Z,64.34
2017-09-28T03:05:43.195Z,63.98
2017-09-28T03:06:23.648Z,64.05
2017-09-28T03:07:04.100Z,63.95
2017-09-28T03:07:44.553Z,64.56
2017-09-28T03:08:25.005Z,64.56
2017-09-28T03:09:05.465Z,64.18
2017-09-28T03:09:45.919Z,64.56
2017-09-28T03:10:26.373Z,64.37
2017-09-28T03:11:06.836Z,64.15
2017-09-28T03:11:47.298Z,64.53
2017-09-28T03:12:27.743Z,64.37
2017-09-28T03:13:08.196Z,64.56
2017-09-28T03:13:48.651Z,64.47
2017-09-28T03:14:29.098Z,64.43
2017-09-28T03:15:09.548Z,64.47
2017-09-28T03:15:50.003Z,64.37
2017-09-28T03:16:30.457Z,64.37
2017-09-28T03:17:10.916Z,64.63
2017-09-28T03:17:51.372Z,64.34
2017-09-28T03:18:31.824Z,64.47
2017-09-28T03:19:12.287Z,64.53
2017-09-28T03:19:52.737Z,64.18
2017-09-28T03:20:33.187Z,64.53
2017-09-28T03:21:13.637Z,64.24
2017-09-28T03:21:54.092Z,64.53
2017-09-28T03:22:34.544Z,64.66
2017-09-28T03:23:14.999Z,64.15
2017-09-28T03:23:55.454Z,64.53
2017-09-28T03:24:35.909Z,64.56
2017-09-28T03:25:16.347Z,64.53
2017-09-28T03:25:56.805Z,64.53
2017-09-28T03:26:37.259Z,64.37
2017-09-28T03:27:17.708Z,64.56
2017-09-28T03:27:58.165Z,64.63
2017-09-28T03:28:38.621Z,64.34
2017-09-28T03:29:19.079Z,64.47
2017-09-28T03:29:59.525Z,64.47
2017-09-28T03:30:39.975Z,64.43
2017-09-28T03:31:20.427Z,64.63
2017-09-28T03:32:00.887Z,64.18
2017-09-28T03:32:41.337Z,64.53
2017-09-28T03:33:21.793Z,64.43
2017-09-28T03:34:02.246Z,64.24
2017-09-28T03:34:42.700Z,64.08
2017-09-28T03:35:23.150Z,64.43
2017-09-28T03:36:03.609Z,64.56
2017-09-28T03:36:44.066Z,64.63
2017-09-28T03:37:24.515Z,64.34
2017-09-28T03:38:04.971Z,64.24
2017-09-28T03:38:45.431Z,64.24
2017-09-28T03:39:25.883Z,64.28
2017-09-28T03:40:06.336Z,64.28
2017-09-28T03:40:46.800Z,64.37
2017-09-28T03:41:27.226Z,64.18
2017-09-28T03:42:07.680Z,64.28
2017-09-28T03:42:48.138Z,64.37
2017-09-28T03:43:28.592Z,64.05
2017-09-28T03:44:09.049Z,64.08
2017-09-28T03:44:49.518Z,64.76
2017-09-28T03:45:29.971Z,64.76
2017-09-28T03:46:10.427Z,64.66
2017-09-28T03:46:50.884Z,64.76
2017-09-28T03:47:31.336Z,64.28
2017-09-28T03:48:11.791Z,64.56
2017-09-28T03:48:52.237Z,64.86
2017-09-28T03:49:32.690Z,64.08
2017-09-28T03:50:13.141Z,64.18
2017-09-28T03:50:53.588Z,64.47
2017-09-28T03:51:34.038Z,64.37
2017-09-28T03:53:21.434Z,64.66
2017-09-28T03:54:01.891Z,64.37
2017-09-28T03:54:42.343Z,64.18
2017-09-28T03:55:22.790Z,64.18
2017-09-28T03:56:03.221Z,64.66
2017-09-28T03:56:43.692Z,63.98
2017-09-28T03:57:24.143Z,63.89
2017-09-28T03:58:04.597Z,64.37
2017-09-28T03:58:45.054Z,64.28
2017-09-28T03:59:25.509Z,63.98
2017-09-28T04:00:05.967Z,64.08
2017-09-28T04:00:46.420Z,63.89
2017-09-28T04:01:26.867Z,63.79
2017-09-28T04:02:07.328Z,63.7
2017-09-28T04:02:47.777Z,63.89
2017-09-28T04:03:28.224Z,63.5
2017-09-28T04:04:08.674Z,63.7
2017-09-28T04:04:49.124Z,63.6
2017-09-28T04:05:29.580Z,63.5
2017-09-28T04:06:10.030Z,63.5
2017-09-28T04:06:50.489Z,63.89
2017-09-28T04:07:31.041Z,63.98
2017-09-28T04:08:11.410Z,63.98
2017-09-28T04:08:51.872Z,63.79
2017-09-28T04:09:32.315Z,63.98
2017-09-28T04:10:12.768Z,63.98
2017-09-28T04:10:53.238Z,63.4
2017-09-28T04:11:33.687Z,63.4
2017-09-28T04:12:14.135Z,63.7
2017-09-28T04:12:54.605Z,63.5
2017-09-28T04:13:35.058Z,63.4
2017-09-28T04:14:15.492Z,63.31
2017-09-28T04:14:55.942Z,63.02
2017-09-28T04:15:36.390Z,63.05
2017-09-28T04:16:16.848Z,63.12
2017-09-28T04:16:57.357Z,63.21
2017-09-28T04:17:37.789Z,63.5
2017-09-28T04:18:18.247Z,63.12
2017-09-28T04:18:58.694Z,63.05
2017-09-28T04:19:39.164Z,62.92
2017-09-28T04:20:19.588Z,62.95
2017-09-28T04:21:00.041Z,62.95
2017-09-28T04:21:40.476Z,62.95
2017-09-28T04:22:20.908Z,63.05
2017-09-28T04:23:01.339Z,62.95
2017-09-28T04:23:41.791Z,62.95
2017-09-28T04:24:22.239Z,62.86
2017-09-28T04:26:34.913Z,63.05
2017-09-28T04:27:15.367Z,63.05
2017-09-28T04:27:55.835Z,63.34
2017-09-28T04:28:36.288Z,63.05
2017-09-28T04:29:16.734Z,63.05
2017-09-28T04:29:57.193Z,63.24
2017-09-28T04:30:37.648Z,62.47
2017-09-28T04:31:18.109Z,62.76
2017-09-28T04:31:58.562Z,62.76
2017-09-28T04:32:39.001Z,62.86
2017-09-28T04:33:19.455Z,62.86
2017-09-28T04:33:59.902Z,62.86
2017-09-28T04:34:40.358Z,62.86
2017-09-28T04:35:20.809Z,62.66
2017-09-28T04:36:01.265Z,62.86
2017-09-28T04:36:41.690Z,62.66
2017-09-28T04:37:22.146Z,62.76
2017-09-28T04:38:02.612Z,62.86
2017-09-28T04:38:43.066Z,62.86
2017-09-28T04:39:23.520Z,63.05
2017-09-28T04:40:03.977Z,62.86
2017-09-28T04:40:44.429Z,62.86
2017-09-28T04:41:24.909Z,62.86
2017-09-28T04:42:05.335Z,62.76
2017-09-28T04:42:45.782Z,62.86
2017-09-28T04:43:26.243Z,62.76
2017-09-28T04:44:06.693Z,62.95
2017-09-28T04:44:47.141Z,62.57
2017-09-28T04:45:27.588Z,62.57
2017-09-28T04:46:08.047Z,62.66
2017-09-28T04:46:48.495Z,62.86
2017-09-28T04:47:28.955Z,62.86
2017-09-28T04:48:09.408Z,62.86
2017-09-28T04:48:49.862Z,62.76
2017-09-28T04:49:30.317Z,62.86
2017-09-28T04:50:10.774Z,62.76
2017-09-28T04:50:51.230Z,62.86
2017-09-28T04:51:31.887Z,62.76
2017-09-28T04:52:12.336Z,62.76
2017-09-28T04:52:52.784Z,62.76
2017-09-28T04:53:33.244Z,62.76
2017-09-28T04:54:13.694Z,62.86
2017-09-28T04:54:54.144Z,62.76
2017-09-28T04:55:34.599Z,62.95
2017-09-28T04:56:15.058Z,62.86
2017-09-28T04:56:55.527Z,62.86
2017-09-28T04:57:35.981Z,62.86
2017-09-28T04:58:16.433Z,62.66
2017-09-28T04:58:56.883Z,62.76
2017-09-28T04:59:37.326Z,62.76
2017-09-28T05:00:17.780Z,62.86
2017-09-28T05:00:58.212Z,62.76
2017-09-28T05:01:38.668Z,62.86
2017-09-28T05:02:19.129Z,62.95
2017-09-28T05:02:59.579Z,62.95
2017-09-28T05:03:40.037Z,62.66
2017-09-28T05:04:20.493Z,62.86
2017-09-28T05:05:00.948Z,62.95
2017-09-28T05:05:41.399Z,62.57
2017-09-28T05:06:21.860Z,62.95
2017-09-28T05:07:02.302Z,63.05
2017-09-28T05:07:42.757Z,62.86
2017-09-28T05:08:23.207Z,62.66
2017-09-28T05:09:03.660Z,62.66
2017-09-28T05:09:44.113Z,62.86
2017-09-28T05:10:24.575Z,62.82
2017-09-28T05:11:05.044Z,63.43
2017-09-28T05:11:45.486Z,63.12
2017-09-28T05:12:25.936Z,63.12
2017-09-28T05:13:06.396Z,63.15
2017-09-28T05:13:46.989Z,63.02
2017-09-28T05:14:27.516Z,63.02
2017-09-28T05:15:07.990Z,63.02
2017-09-28T05:17:20.766Z,62.82
2017-09-28T05:18:01.215Z,62.86
2017-09-28T05:18:41.663Z,63.02
2017-09-28T05:19:22.110Z,63.02
2017-09-28T05:20:02.658Z,63.02
2017-09-28T05:20:43.013Z,62.82
2017-09-28T05:21:23.461Z,63.12
2017-09-28T05:22:03.905Z,63.31
2017-09-28T05:22:44.359Z,63.31
2017-09-28T05:23:24.806Z,63.31
2017-09-28T05:24:05.260Z,63.21
2017-09-28T05:24:45.715Z,63.21
2017-09-28T05:25:26.168Z,63.21
2017-09-28T05:26:06.628Z,63.21
2017-09-28T05:26:47.082Z,63.5
2017-09-28T05:27:27.531Z,63.5
2017-09-28T05:28:07.981Z,63.31
2017-09-28T05:28:48.435Z,63.4
2017-09-28T05:29:28.891Z,63.5
2017-09-28T05:30:09.334Z,63.02
2017-09-28T05:30:49.786Z,63.21
2017-09-28T05:31:30.247Z,62.92
2017-09-28T05:32:10.694Z,63.02
2017-09-28T05:32:51.149Z,63.21
2017-09-28T05:33:31.598Z,63.02
2017-09-28T05:34:12.054Z,63.21
2017-09-28T05:34:52.516Z,63.21
2017-09-28T05:35:32.968Z,63.12
2017-09-28T05:36:13.420Z,63.12
2017-09-28T05:36:53.869Z,63.21
2017-09-28T05:37:34.321Z,63.12
2017-09-28T05:38:14.890Z,63.02
2017-09-28T05:38:55.287Z,63.6
2017-09-28T05:39:35.931Z,62.92
2017-09-28T05:40:16.385Z,62.92
2017-09-28T05:40:56.839Z,63.02
2017-09-28T05:41:37.293Z,63.02
2017-09-28T05:42:17.743Z,63.21
2017-09-28T05:42:58.197Z,63.31
2017-09-28T05:43:38.643Z,63.21
2017-09-28T05:44:19.108Z,63.02
2017-09-28T05:44:59.560Z,63.21
2017-09-28T05:45:40.009Z,62.92
2017-09-28T05:46:20.473Z,63.31
2017-09-28T05:47:00.914Z,63.31
2017-09-28T05:48:48.509Z,63.5
2017-09-28T05:51:01.155Z,63.21
2017-09-28T05:51:41.617Z,63.02
2017-09-28T05:52:22.068Z,63.12
2017-09-28T05:53:02.526Z,62.92
2017-09-28T05:53:42.980Z,63.02
2017-09-28T05:54:23.435Z,62.82
2017-09-28T05:55:03.894Z,62.82
2017-09-28T05:55:44.348Z,63.02
2017-09-28T05:56:24.797Z,62.82
2017-09-28T05:58:12.749Z,63.02
2017-09-28T05:58:53.203Z,63.02
2017-09-28T05:59:33.674Z,62.92
2017-09-28T06:00:14.100Z,62.92
2017-09-28T06:00:54.564Z,62.92
2017-09-28T06:01:35.015Z,63.12
2017-09-28T06:02:15.466Z,63.02
2017-09-28T06:02:55.925Z,62.92
2017-09-28T06:03:36.374Z,63.02
2017-09-28T06:04:16.834Z,63.02
2017-09-28T06:04:57.291Z,62.92
2017-09-28T06:05:37.747Z,62.73
2017-09-28T06:06:18.193Z,62.92
2017-09-28T06:06:58.646Z,62.82
2017-09-28T06:07:39.100Z,62.82
2017-09-28T06:08:19.551Z,62.82
2017-09-28T06:09:00.016Z,62.92
2017-09-28T06:09:40.468Z,62.73
2017-09-28T06:10:20.938Z,62.92
2017-09-28T06:11:01.511Z,62.92
2017-09-28T06:11:41.962Z,63.02
2017-09-28T06:12:22.412Z,63.02
2017-09-28T06:13:02.907Z,62.82
2017-09-28T06:13:43.362Z,63.02
2017-09-28T06:14:23.793Z,63.02
2017-09-28T06:16:11.189Z,62.82
2017-09-28T06:16:51.635Z,62.82
2017-09-28T06:17:32.114Z,63.02
2017-09-28T06:18:12.569Z,62.92
2017-09-28T06:18:53.022Z,63.02
2017-09-28T06:19:33.476Z,62.82
2017-09-28T06:20:13.930Z,62.92
2017-09-28T06:20:54.384Z,62.82
2017-09-28T06:21:34.839Z,62.82
2017-09-28T06:22:15.292Z,63.02
2017-09-28T06:22:55.743Z,62.92
2017-09-28T06:23:36.198Z,62.82
2017-09-28T06:24:16.648Z,63.12
2017-09-28T06:24:57.106Z,62.92
2017-09-28T06:25:37.558Z,62.92
2017-09-28T06:26:18.009Z,62.82
2017-09-28T06:26:58.463Z,63.02
2017-09-28T06:27:38.923Z,63.12
2017-09-28T06:28:19.381Z,63.02
2017-09-28T06:28:59.820Z,63.12
2017-09-28T06:29:40.261Z,63.12
2017-09-28T06:30:20.705Z,63.02
2017-09-28T06:31:01.140Z,63.12
2017-09-28T06:31:41.588Z,63.31
2017-09-28T06:32:22.063Z,63.31
2017-09-28T06:33:02.518Z,63.4
2017-09-28T06:33:42.955Z,63.21
2017-09-28T06:34:23.424Z,63.02
2017-09-28T06:35:03.862Z,63.21
2017-09-28T06:35:44.311Z,63.12
2017-09-28T06:36:24.758Z,63.12
2017-09-28T06:37:05.212Z,63.02
2017-09-28T06:37:45.792Z,62.82
2017-09-28T06:38:26.281Z,63.12
2017-09-28T06:39:06.722Z,62.92
2017-09-28T06:39:47.183Z,63.12
2017-09-28T06:40:27.641Z,63.12
2017-09-28T06:41:08.076Z,63.21
2017-09-28T06:41:48.529Z,63.02
2017-09-28T06:42:28.977Z,62.82
2017-09-28T06:43:09.431Z,63.02
2017-09-28T06:43:49.891Z,62.92
2017-09-28T06:44:30.537Z,62.82
2017-09-28T06:45:10.981Z,62.73
2017-09-28T06:45:51.424Z,62.92
2017-09-28T06:46:31.888Z,62.92
2017-09-28T06:47:12.511Z,62.92
2017-09-28T06:47:53.426Z,62.82
2017-09-28T06:48:33.873Z,63.02
2017-09-28T06:49:14.327Z,62.82
2017-09-28T06:49:54.762Z,62.92
2017-09-28T06:50:35.220Z,62.92
2017-09-28T06:51:15.672Z,62.73
2017-09-28T06:51:56.134Z,62.82
2017-09-28T06:52:36.587Z,62.82
2017-09-28T06:53:17.039Z,62.82
2017-09-28T06:53:57.496Z,62.73
2017-09-28T06:54:37.941Z,62.82
2017-09-28T06:55:18.394Z,62.82
2017-09-28T06:55:58.850Z,63.12
2017-09-28T06:56:39.305Z,62.82
2017-09-28T06:57:19.765Z,63.02
2017-09-28T06:58:00.219Z,63.12
2017-09-28T06:58:40.675Z,62.73
2017-09-28T06:59:21.137Z,62.82
2017-09-28T07:00:01.630Z,63.02
2017-09-28T07:00:42.074Z,62.82
2017-09-28T07:01:22.524Z,62.92
2017-09-28T07:02:02.981Z,62.73
2017-09-28T07:02:43.442Z,63.02
2017-09-28T07:03:23.900Z,63.02
2017-09-28T07:04:04.356Z,63.02
2017-09-28T07:04:44.812Z,63.12
2017-09-28T07:05:25.260Z,62.82
2017-09-28T07:06:05.719Z,63.02
2017-09-28T07:06:46.182Z,63.21
2017-09-28T07:07:26.628Z,63.02
2017-09-28T07:08:07.087Z,63.31
2017-09-28T07:08:47.543Z,63.31
2017-09-28T07:09:28.022Z,63.21
2017-09-28T07:10:08.482Z,63.02
2017-09-28T07:10:48.915Z,63.12
2017-09-28T07:13:01.715Z,62.54
2017-09-28T07:13:42.175Z,62.82
2017-09-28T07:14:22.645Z,62.82
2017-09-28T07:15:03.107Z,62.63
2017-09-28T07:15:43.560Z,62.66
2017-09-28T07:16:23.997Z,62.95
2017-09-28T07:17:04.465Z,62.73
2017-09-28T07:17:44.920Z,62.73
2017-09-28T07:18:25.374Z,62.73
2017-09-28T07:19:05.834Z,62.63
2017-09-28T07:19:46.285Z,62.57
2017-09-28T07:20:26.742Z,62.54
2017-09-28T07:21:07.195Z,62.57
2017-09-28T07:21:47.673Z,62.37
2017-09-28T07:22:28.104Z,62.18
2017-09-28T07:23:08.558Z,62.47
2017-09-28T07:23:49.011Z,62.66
2017-09-28T07:24:29.465Z,62.47
2017-09-28T07:25:09.916Z,62.28
2017-09-28T07:25:50.371Z,62.18
2017-09-28T07:26:30.828Z,62.08
2017-09-28T07:27:11.284Z,61.99
2017-09-28T07:27:51.738Z,62.18
2017-09-28T07:28:32.192Z,61.99
2017-09-28T07:29:12.646Z,62.18
2017-09-28T07:29:53.101Z,61.99
2017-09-28T07:30:33.552Z,62.28
2017-09-28T07:31:14.010Z,62.18
2017-09-28T07:31:54.462Z,61.99
2017-09-28T07:32:34.918Z,61.99
2017-09-28T07:33:15.378Z,62.18
2017-09-28T07:33:55.825Z,61.99
2017-09-28T07:34:36.333Z,62.08
2017-09-28T07:35:16.776Z,61.99
2017-09-28T07:35:57.235Z,62.18
2017-09-28T07:36:37.691Z,61.8
2017-09-28T07:37:18.142Z,61.99
2017-09-28T07:37:58.599Z,62.18
2017-09-28T07:38:39.061Z,62.28
2017-09-28T07:39:19.503Z,62.18
2017-09-28T07:39:59.964Z,62.18
2017-09-28T07:40:40.418Z,62.18
2017-09-28T07:41:20.872Z,61.99
2017-09-28T07:42:01.333Z,61.99
2017-09-28T07:42:41.780Z,62.18
2017-09-28T07:43:22.234Z,62.08
2017-09-28T07:44:02.696Z,62.28
2017-09-28T07:44:43.146Z,62.18
2017-09-28T07:45:23.595Z,62.47
2017-09-28T07:46:04.032Z,62.18
2017-09-28T07:46:44.490Z,62.18
2017-09-28T07:47:24.938Z,62.08
2017-09-28T07:48:05.387Z,62.08
2017-09-28T07:48:45.835Z,62.08
2017-09-28T07:49:26.444Z,61.89
2017-09-28T07:50:06.733Z,62.28
2017-09-28T07:50:47.188Z,62.21
2017-09-28T07:51:27.633Z,61.6
2017-09-28T07:52:08.084Z,61.8
2017-09-28T07:52:48.536Z,61.7
2017-09-28T07:53:28.989Z,61.8
2017-09-28T07:54:09.444Z,61.6
2017-09-28T07:54:49.884Z,61.89
2017-09-28T07:55:30.348Z,61.8
2017-09-28T07:56:10.798Z,61.6
2017-09-28T07:56:51.254Z,61.7
2017-09-28T07:57:31.709Z,61.6
2017-09-28T07:58:12.161Z,61.73
2017-09-28T07:58:52.616Z,61.7
2017-09-28T07:59:33.065Z,61.41
2017-09-28T08:00:13.517Z,61.22
2017-09-28T08:00:53.966Z,61.22
2017-09-28T08:01:34.426Z,61.31
2017-09-28T08:02:14.886Z,61.41
2017-09-28T08:02:55.343Z,61.41
2017-09-28T08:03:35.806Z,61.6
2017-09-28T08:04:16.256Z,61.31
2017-09-28T08:04:56.710Z,61.44
2017-09-28T08:05:37.166Z,61.63
2017-09-28T08:06:17.616Z,61.51
2017-09-28T08:06:58.069Z,61.25
2017-09-28T08:07:38.527Z,61.41
2017-09-28T08:08:18.963Z,61.31
2017-09-28T08:08:59.415Z,61.34
2017-09-28T08:09:39.871Z,61.31
2017-09-28T08:10:20.322Z,61.31
2017-09-28T08:11:00.779Z,61.51
2017-09-28T08:11:41.232Z,61.31
2017-09-28T08:12:21.678Z,61.22
2017-09-28T08:13:02.145Z,61.7
2017-09-28T08:13:42.599Z,61.51
2017-09-28T08:14:23.062Z,61.54
2017-09-28T08:15:03.522Z,61.44
2017-09-28T08:15:43.963Z,61.44
2017-09-28T08:16:24.409Z,61.54
2017-09-28T08:17:04.861Z,61.6
2017-09-28T08:17:45.318Z,61.7
2017-09-28T08:18:25.765Z,61.34
2017-09-28T08:19:06.224Z,61.25
2017-09-28T08:19:46.677Z,61.25
2017-09-28T08:20:27.102Z,61.63
2017-09-28T08:21:07.547Z,61.44
2017-09-28T08:21:47.992Z,61.05
2017-09-28T08:22:28.445Z,60.76
2017-09-28T08:23:08.891Z,61.05
2017-09-28T08:23:49.344Z,61.05
2017-09-28T08:24:29.804Z,61.15
2017-09-28T08:25:10.254Z,61.25
2017-09-28T08:25:50.706Z,60.57
2017-09-28T08:26:31.160Z,60.76
2017-09-28T08:27:11.616Z,60.6
2017-09-28T08:27:52.070Z,60.21
2017-09-28T08:28:32.519Z,60.21
2017-09-28T08:29:12.976Z,60.02
2017-09-28T08:29:53.437Z,60.11
2017-09-28T08:30:33.890Z,60.11
2017-09-28T08:31:14.347Z,59.92
2017-09-28T08:31:54.802Z,59.44
2017-09-28T08:32:35.253Z,59.83
2017-09-28T08:33:15.712Z,59.73
2017-09-28T08:33:56.166Z,59.73
2017-09-28T08:34:36.631Z,59.76
2017-09-28T08:35:17.077Z,59.66
2017-09-28T08:35:57.533Z,59.86
2017-09-28T08:36:37.991Z,60.24
2017-09-28T08:37:18.449Z,59.95
2017-09-28T08:37:58.901Z,60.05
2017-09-28T08:38:39.359Z,60.05
2017-09-28T08:39:19.811Z,59.66
2017-09-28T08:40:00.260Z,59.56
2017-09-28T08:40:40.710Z,59.66
2017-09-28T08:41:21.167Z,59.56
2017-09-28T08:42:01.623Z,59.47
2017-09-28T08:42:42.076Z,59.47
2017-09-28T08:43:22.534Z,59.47
2017-09-28T08:44:02.984Z,59.08
2017-09-28T08:44:43.446Z,59.4
2017-09-28T08:45:23.897Z,59.01
2017-09-28T08:46:04.345Z,59.31
2017-09-28T08:46:44.800Z,59.31
2017-09-28T08:47:25.253Z,59.21
2017-09-28T08:48:05.720Z,59.21
2017-09-28T08:48:46.161Z,59.11
2017-09-28T08:49:26.613Z,59.21
2017-09-28T08:50:07.066Z,59.01
2017-09-28T08:50:47.510Z,59.21
2017-09-28T08:51:27.972Z,59.21
2017-09-28T08:52:08.436Z,59.21
2017-09-28T08:52:48.895Z,59.21
2017-09-28T08:53:29.347Z,59.21
2017-09-28T08:54:09.802Z,59.21
2017-09-28T08:54:50.252Z,59.31
2017-09-28T08:55:30.728Z,59.31